^^
Your Local Weather - Clay, NY Station Historical Data
Daily Summary for August 31, 2017 Units:  English    Metric   Both
« Previous Day
Next Day »
Daily Weekly Monthly Yearly Custom
  High: Low: Average:
Temperature: 67.3 °F 45.9 °F 60.1 °F
Dew Point: 59.6 °F 42.0 °F 52.4 °F
Humidity: 93% 55% 77%
Wind Speed: 5.0mph 0.0mph 2mph
Wind Gust: 11.0mph - -
Wind- - WSW
Pressure: 30.09 in 29.84 in -
Precipitation: 0.00 in    
Historical Graphs
 
 
Tabular Data for August 31, 2017
Time Temperature Dew Point Pressure Wind Wind Speed Wind Gust Humidity Rainfall Rate (Hourly) solar
00:02 55.3 °F 53.0 °F 29.89 in Calm     92% 0.00 in 0 W/m2
00:08 55.4 °F 53.1 °F 29.89 in Calm     92% 0.00 in 0 W/m2
00:14 55.6 °F 53.3 °F 29.88 in Calm     92% 0.00 in 0 W/m2
00:22 56.0 °F 53.7 °F 29.88 in Calm     92% 0.00 in 0 W/m2
00:28 56.3 °F 54.0 °F 29.88 in Calm     92% 0.00 in 0 W/m2
00:34 56.5 °F 54.2 °F 29.87 in Calm     92% 0.00 in 0 W/m2
00:40 56.6 °F 54.3 °F 29.87 in Calm     92% 0.00 in 0 W/m2
00:46 56.7 °F 54.4 °F 29.87 in Calm     92% 0.00 in 0 W/m2
00:52 56.7 °F 54.4 °F 29.87 in Calm     92% 0.00 in 0 W/m2
00:58 56.7 °F 54.4 °F 29.87 in Calm     92% 0.00 in 0 W/m2
01:04 56.9 °F 54.6 °F 29.87 in Calm     92% 0.00 in 0 W/m2
01:10 57.1 °F 54.8 °F 29.87 in Calm     92% 0.00 in 0 W/m2
01:16 57.4 °F 55.1 °F 29.87 in Calm     92% 0.00 in 0 W/m2
01:22 57.7 °F 55.7 °F 29.87 in Calm     93% 0.00 in 0 W/m2
01:28 57.9 °F 55.6 °F 29.86 in Calm     92% 0.00 in 0 W/m2
01:34 58.1 °F 56.1 °F 29.86 in Calm     93% 0.00 in 0 W/m2
01:40 58.4 °F 56.1 °F 29.86 in Calm     92% 0.00 in 0 W/m2
01:46 58.6 °F 56.3 °F 29.86 in Calm     92% 0.00 in 0 W/m2
01:52 58.7 °F 56.4 °F 29.86 in Calm     92% 0.00 in 0 W/m2
01:58 58.8 °F 56.5 °F 29.85 in Calm     92% 0.00 in 0 W/m2
02:04 58.8 °F 56.5 °F 29.85 in Calm     92% 0.00 in 0 W/m2
02:10 58.9 °F 56.3 °F 29.86 in Calm   2.0 mph 91% 0.00 in 0 W/m2
02:16 59.1 °F 56.5 °F 29.85 in Calm   2.0 mph 91% 0.00 in 0 W/m2
02:22 59.4 °F 56.5 °F 29.85 in Calm     90% 0.00 in 0 W/m2
02:28 59.9 °F 56.6 °F 29.85 in Calm   2.0 mph 89% 0.00 in 0 W/m2
02:34 60.4 °F 56.8 °F 29.85 in West 1.0 mph 1.0 mph 88% 0.00 in 0 W/m2
02:40 60.7 °F 56.8 °F 29.85 in West 1.0 mph 1.0 mph 87% 0.00 in 0 W/m2
02:46 61.1 °F 57.2 °F 29.84 in SW 1.0 mph 2.0 mph 87% 0.00 in 0 W/m2
02:52 61.4 °F 57.2 °F 29.85 in WSW 2.0 mph 2.0 mph 86% 0.00 in 0 W/m2
02:58 61.7 °F 57.5 °F 29.85 in WSW 2.0 mph 2.0 mph 86% 0.00 in 0 W/m2
03:04 61.8 °F 57.6 °F 29.85 in WSW 2.0 mph 2.0 mph 86% 0.00 in 0 W/m2
03:10 61.9 °F 57.7 °F 29.84 in WSW 1.0 mph 1.0 mph 86% 0.00 in 0 W/m2
03:16 62.0 °F 57.8 °F 29.85 in WSW 1.0 mph 2.0 mph 86% 0.00 in 0 W/m2
03:22 62.0 °F 57.8 °F 29.85 in WSW 1.0 mph 1.0 mph 86% 0.00 in 0 W/m2
03:28 62.1 °F 57.9 °F 29.84 in SW 2.0 mph 2.0 mph 86% 0.00 in 0 W/m2
03:34 62.3 °F 58.1 °F 29.84 in SW 2.0 mph 3.0 mph 86% 0.00 in 0 W/m2
03:40 62.4 °F 58.2 °F 29.84 in SW 1.0 mph 1.0 mph 86% 0.00 in 0 W/m2
03:46 62.5 °F 58.3 °F 29.84 in WSW 1.0 mph 4.0 mph 86% 0.00 in 0 W/m2
03:52 62.5 °F 58.3 °F 29.84 in West 1.0 mph 4.0 mph 86% 0.00 in 0 W/m2
03:58 62.6 °F 58.4 °F 29.84 in WSW 2.0 mph 4.0 mph 86% 0.00 in 0 W/m2
04:04 62.7 °F 58.5 °F 29.84 in WSW 2.0 mph 2.0 mph 86% 0.00 in 0 W/m2
04:10 62.7 °F 58.5 °F 29.84 in SW 1.0 mph 1.0 mph 86% 0.00 in 0 W/m2
04:16 63.0 °F 58.7 °F 29.84 in SW 2.0 mph 3.0 mph 86% 0.00 in 0 W/m2
04:22 62.9 °F 58.6 °F 29.84 in WSW 1.0 mph 5.0 mph 86% 0.00 in 0 W/m2
04:28 62.9 °F 58.6 °F 29.84 in WSW 1.0 mph 5.0 mph 86% 0.00 in 0 W/m2
04:34 62.8 °F 58.9 °F 29.84 in SW 1.0 mph 1.0 mph 87% 0.00 in 0 W/m2
04:40 62.8 °F 59.2 °F 29.84 in WSW 1.0 mph 4.0 mph 88% 0.00 in 0 W/m2
04:46 63.0 °F 59.4 °F 29.84 in WSW 1.0 mph 4.0 mph 88% 0.00 in 0 W/m2
04:52 62.9 °F 59.3 °F 29.84 in WSW 1.0 mph 3.0 mph 88% 0.00 in 0 W/m2
04:58 62.8 °F 59.2 °F 29.84 in West 1.0 mph 3.0 mph 88% 0.00 in 0 W/m2
05:04 62.8 °F 59.2 °F 29.84 in West 1.0 mph 1.0 mph 88% 0.00 in 0 W/m2
05:10 62.7 °F 59.4 °F 29.84 in West 1.0 mph 1.0 mph 89% 0.00 in 0 W/m2
05:16 62.7 °F 59.4 °F 29.84 in SW 1.0 mph 1.0 mph 89% 0.00 in 0 W/m2
05:22 62.6 °F 59.3 °F 29.85 in SW 1.0 mph 2.0 mph 89% 0.00 in 0 W/m2
05:28 62.6 °F 59.3 °F 29.85 in Calm     89% 0.00 in 0 W/m2
05:34 62.6 °F 59.3 °F 29.85 in Calm   2.0 mph 89% 0.00 in 0 W/m2
05:40 62.6 °F 59.3 °F 29.85 in WSW 1.0 mph 2.0 mph 89% 0.00 in 0 W/m2
05:46 62.5 °F 59.2 °F 29.85 in WSW 1.0 mph 1.0 mph 89% 0.00 in 0 W/m2
05:52 62.4 °F 59.4 °F 29.85 in Calm   1.0 mph 90% 0.00 in 0 W/m2
05:58 62.4 °F 59.4 °F 29.85 in Calm     90% 0.00 in 0 W/m2
06:04 62.4 °F 59.4 °F 29.85 in Calm     90% 0.00 in 0 W/m2
06:10 62.2 °F 59.2 °F 29.85 in Calm     90% 0.00 in 0 W/m2
06:16 62.0 °F 59.0 °F 29.86 in Calm   1.0 mph 90% 0.00 in 0 W/m2
06:22 62.0 °F 59.3 °F 29.87 in Calm   2.0 mph 91% 0.00 in 0 W/m2
06:28 62.2 °F 59.5 °F 29.87 in WNW 1.0 mph 2.0 mph 91% 0.00 in 0 W/m2
06:34 62.3 °F 59.6 °F 29.87 in Calm   1.0 mph 91% 0.00 in 0 W/m2
06:40 62.2 °F 59.5 °F 29.87 in NNW 1.0 mph 1.0 mph 91% 0.00 in 7 W/m2
06:52 61.8 °F 58.5 °F 29.88 in NNW 2.0 mph 4.0 mph 89% 0.00 in 12 W/m2
06:58 61.7 °F 58.1 °F 29.89 in NW 2.0 mph 4.0 mph 88% 0.00 in 12 W/m2
07:04 61.7 °F 57.8 °F 29.89 in NW 2.0 mph 4.0 mph 87% 0.00 in 12 W/m2
07:10 61.6 °F 57.7 °F 29.90 in NNW 2.0 mph 2.0 mph 87% 0.00 in 14 W/m2
07:16 61.6 °F 57.7 °F 29.90 in North 1.0 mph 2.0 mph 87% 0.00 in 18 W/m2
07:22 61.4 °F 57.2 °F 29.90 in NW 2.0 mph 2.0 mph 86% 0.00 in 21 W/m2
07:28 61.2 °F 57.0 °F 29.91 in NW 2.0 mph 2.0 mph 86% 0.00 in 21 W/m2
07:34 61.0 °F 56.5 °F 29.91 in NNW 2.0 mph 3.0 mph 85% 0.00 in 26 W/m2
07:40 60.7 °F 55.5 °F 29.91 in NW 2.0 mph 3.0 mph 83% 0.00 in 32 W/m2
07:46 60.5 °F 55.3 °F 29.92 in NNW 4.0 mph 5.0 mph 83% 0.00 in 37 W/m2
07:52 60.3 °F 55.1 °F 29.92 in NNE 3.0 mph 5.0 mph 83% 0.00 in 39 W/m2
07:58 60.0 °F 54.2 °F 29.92 in NNW 3.0 mph 5.0 mph 81% 0.00 in 33 W/m2
08:04 59.9 °F 54.1 °F 29.92 in NNW 3.0 mph 4.0 mph 81% 0.00 in 40 W/m2
08:10 59.8 °F 54.0 °F 29.93 in NW 3.0 mph 4.0 mph 81% 0.00 in 58 W/m2
08:16 59.8 °F 54.0 °F 29.93 in NW 3.0 mph 4.0 mph 81% 0.00 in 60 W/m2
08:22 59.8 °F 54.0 °F 29.93 in NNE 3.0 mph 3.0 mph 81% 0.00 in 67 W/m2
08:28 59.8 °F 54.0 °F 29.93 in NNW 3.0 mph 3.0 mph 81% 0.00 in 81 W/m2
08:34 59.8 °F 54.3 °F 29.93 in NNW 3.0 mph 4.0 mph 82% 0.00 in 127 W/m2
08:40 59.9 °F 54.4 °F 29.93 in NNW 2.0 mph 3.0 mph 82% 0.00 in 121 W/m2
08:46 60.1 °F 54.6 °F 29.93 in North 3.0 mph 5.0 mph 82% 0.00 in 114 W/m2
08:52 60.3 °F 54.8 °F 29.94 in North 2.0 mph 2.0 mph 82% 0.00 in 98 W/m2
08:58 60.3 °F 54.4 °F 29.95 in NNW 2.0 mph 4.0 mph 81% 0.00 in 100 W/m2
09:04 60.4 °F 54.9 °F 29.95 in NNE 2.0 mph 6.0 mph 82% 0.00 in 142 W/m2
09:10 60.6 °F 54.7 °F 29.95 in NNW 3.0 mph 3.0 mph 81% 0.00 in 188 W/m2
09:16 61.0 °F 55.1 °F 29.95 in NW 3.0 mph 11.0 mph 81% 0.00 in 236 W/m2
09:22 61.2 °F 54.3 °F 29.95 in NNW 4.0 mph 4.0 mph 78% 0.00 in 192 W/m2
09:28 61.5 °F 54.6 °F 29.95 in NNE 3.0 mph 6.0 mph 78% 0.00 in 272 W/m2
09:34 61.7 °F 54.4 °F 29.95 in NNW 4.0 mph 9.0 mph 77% 0.00 in 207 W/m2
09:40 61.6 °F 54.3 °F 29.95 in NNE 4.0 mph 4.0 mph 77% 0.00 in 95 W/m2
09:46 61.5 °F 54.6 °F 29.95 in NW 2.0 mph 4.0 mph 78% 0.00 in 156 W/m2
09:52 61.5 °F 54.6 °F 29.96 in NW 2.0 mph 4.0 mph 78% 0.00 in 132 W/m2
09:58 61.6 °F 55.0 °F 29.96 in North 2.0 mph 4.0 mph 79% 0.00 in 209 W/m2
10:04 62.2 °F 56.0 °F 29.96 in NW 1.0 mph 3.0 mph 80% 0.00 in 257 W/m2
10:10 62.5 °F 55.5 °F 29.96 in NNW 2.0 mph 2.0 mph 78% 0.00 in 144 W/m2
10:16 62.5 °F 55.2 °F 29.96 in NNW 1.0 mph 2.0 mph 77% 0.00 in 40 W/m2
10:22 62.0 °F 55.1 °F 29.96 in NNW 2.0 mph 3.0 mph 78% 0.00 in 95 W/m2
10:28 61.9 °F 55.0 °F 29.96 in NNE 3.0 mph 3.0 mph 78% 0.00 in 248 W/m2
10:34 62.1 °F 54.8 °F 29.96 in NW 3.0 mph 3.0 mph 77% 0.00 in 171 W/m2
10:40 62.2 °F 54.9 °F 29.97 in North 3.0 mph 3.0 mph 77% 0.00 in 88 W/m2
10:46 62.0 °F 54.7 °F 29.97 in North 3.0 mph 3.0 mph 77% 0.00 in 137 W/m2
10:52 62.1 °F 54.8 °F 29.97 in NNE 4.0 mph 8.0 mph 77% 0.00 in 311 W/m2
10:58 62.9 °F 54.9 °F 29.97 in WNW 4.0 mph 8.0 mph 75% 0.00 in 227 W/m2
11:04 62.8 °F 54.8 °F 29.97 in North 4.0 mph 8.0 mph 75% 0.00 in 348 W/m2
11:10 63.1 °F 54.7 °F 29.97 in WNW 5.0 mph 6.0 mph 74% 0.00 in 374 W/m2
11:16 63.6 °F 55.2 °F 29.96 in NNW 5.0 mph 6.0 mph 74% 0.00 in 631 W/m2
11:22 64.7 °F 55.8 °F 29.96 in North 3.0 mph 4.0 mph 73% 0.00 in 707 W/m2
11:28 65.6 °F 55.2 °F 29.96 in NNE 4.0 mph 7.0 mph 69% 0.00 in 835 W/m2
11:34 64.3 °F 53.1 °F 29.96 in North 5.0 mph 7.0 mph 67% 0.00 in 691 W/m2
11:40 65.3 °F 53.6 °F 29.96 in NNW 5.0 mph 5.0 mph 66% 0.00 in 828 W/m2
11:48 65.5 °F 53.0 °F 29.96 in NNW 5.0 mph 6.0 mph 64% 0.00 in 483 W/m2
11:54 64.5 °F 52.5 °F 29.96 in NNW 5.0 mph 5.0 mph 65% 0.00 in 923 W/m2
12:02 64.9 °F 52.4 °F 29.96 in NNW 4.0 mph 8.0 mph 64% 0.00 in 290 W/m2
12:08 65.1 °F 55.1 °F 29.96 in NW 5.0 mph 8.0 mph 70% 0.00 in 860 W/m2
12:14 67.3 °F 55.5 °F 29.96 in NW 3.0 mph 5.0 mph 66% 0.00 in 909 W/m2
12:20 66.5 °F 53.1 °F 29.96 in NW 3.0 mph 3.0 mph 62% 0.00 in 155 W/m2
12:26 64.5 °F 54.5 °F 29.97 in NNW 5.0 mph 6.0 mph 70% 0.00 in 916 W/m2
12:32 66.7 °F 53.7 °F 29.96 in NW 3.0 mph 4.0 mph 63% 0.00 in 255 W/m2
12:38 66.0 °F 53.9 °F 29.97 in NW 3.0 mph 4.0 mph 65% 0.00 in 870 W/m2
12:44 66.3 °F 53.3 °F 29.96 in WNW 3.0 mph 3.0 mph 63% 0.00 in 1060 W/m2
12:50 65.3 °F 51.9 °F 29.97 in North 4.0 mph 6.0 mph 62% 0.00 in 246 W/m2
12:56 63.6 °F 52.4 °F 29.97 in North 5.0 mph 6.0 mph 67% 0.00 in 237 W/m2
13:02 65.9 °F 53.8 °F 29.96 in North 4.0 mph 4.0 mph 65% 0.00 in 297 W/m2
13:08 65.1 °F 52.2 °F 29.97 in NW 4.0 mph 5.0 mph 63% 0.00 in 411 W/m2
13:14 64.9 °F 52.4 °F 29.97 in NW 4.0 mph 5.0 mph 64% 0.00 in 394 W/m2
13:20 65.4 °F 51.6 °F 29.97 in North 4.0 mph 4.0 mph 61% 0.00 in 914 W/m2
13:26 65.8 °F 51.1 °F 29.97 in NW 4.0 mph 5.0 mph 59% 0.00 in 281 W/m2
13:32 65.2 °F 52.3 °F 29.98 in North 3.0 mph 5.0 mph 63% 0.00 in 188 W/m2
13:38 64.2 °F 52.2 °F 29.98 in NW 3.0 mph 5.0 mph 65% 0.00 in 279 W/m2
13:44 64.1 °F 52.5 °F 29.98 in North 4.0 mph 5.0 mph 66% 0.00 in 728 W/m2
13:50 64.7 °F 52.2 °F 29.98 in NNE 4.0 mph 4.0 mph 64% 0.00 in 332 W/m2
13:56 65.2 °F 51.8 °F 29.98 in NW 2.0 mph 4.0 mph 62% 0.00 in 323 W/m2
14:02 64.7 °F 52.2 °F 29.98 in NNW 3.0 mph 8.0 mph 64% 0.00 in 174 W/m2
14:08 64.2 °F 52.2 °F 29.98 in NW 2.0 mph 8.0 mph 65% 0.00 in 1018 W/m2
14:14 65.3 °F 54.1 °F 29.98 in North 2.0 mph 4.0 mph 67% 0.00 in 1011 W/m2
14:20 66.9 °F 52.6 °F 29.98 in WNW 4.0 mph 5.0 mph 60% 0.00 in 1027 W/m2
14:26 65.9 °F 52.9 °F 29.98 in WNW 3.0 mph 5.0 mph 63% 0.00 in 527 W/m2
14:32 65.1 °F 51.3 °F 29.98 in WNW 3.0 mph 10.0 mph 61% 0.00 in 192 W/m2
14:38 64.5 °F 52.9 °F 29.98 in NNW 4.0 mph 10.0 mph 66% 0.00 in 874 W/m2
14:44 67.1 °F 55.8 °F 29.97 in NNW 3.0 mph 4.0 mph 67% 0.00 in 926 W/m2
14:50 66.3 °F 51.5 °F 29.97 in NNW 3.0 mph 3.0 mph 59% 0.00 in 926 W/m2
14:56 66.3 °F 52.9 °F 29.97 in NW 4.0 mph 4.0 mph 62% 0.00 in 861 W/m2
15:02 66.1 °F 50.9 °F 29.98 in West 3.0 mph 3.0 mph 58% 0.00 in 193 W/m2
15:08 64.7 °F 51.4 °F 29.98 in North 2.0 mph 5.0 mph 62% 0.00 in 153 W/m2
15:14 63.5 °F 51.5 °F 29.97 in NNW 2.0 mph 3.0 mph 65% 0.00 in 123 W/m2
15:20 63.1 °F 51.6 °F 29.97 in NW 2.0 mph 4.0 mph 66% 0.00 in 153 W/m2
15:26 65.0 °F 52.1 °F 29.97 in NW 2.0 mph 4.0 mph 63% 0.00 in 819 W/m2
15:32 64.0 °F 51.6 °F 29.97 in NW 3.0 mph 3.0 mph 64% 0.00 in 130 W/m2
15:38 66.2 °F 52.8 °F 29.97 in WNW 2.0 mph 4.0 mph 62% 0.00 in 782 W/m2
15:44 66.4 °F 53.4 °F 29.96 in North 3.0 mph 7.0 mph 63% 0.00 in 167 W/m2
15:50 65.7 °F 52.8 °F 29.96 in NW 3.0 mph 5.0 mph 63% 0.00 in 687 W/m2
15:56 66.4 °F 50.7 °F 29.96 in NNW 3.0 mph 5.0 mph 57% 0.00 in 758 W/m2
16:02 66.1 °F 51.4 °F 29.96 in NNW 3.0 mph 4.0 mph 59% 0.00 in 717 W/m2
16:08 65.7 °F 51.0 °F 29.97 in North 4.0 mph 5.0 mph 59% 0.00 in 645 W/m2
16:14 65.3 °F 51.1 °F 29.97 in NNW 5.0 mph 6.0 mph 60% 0.00 in 135 W/m2
16:20 64.1 °F 49.9 °F 29.97 in NW 3.0 mph 3.0 mph 60% 0.00 in 174 W/m2
16:26 63.7 °F 51.3 °F 29.97 in NW 3.0 mph 5.0 mph 64% 0.00 in 151 W/m2
16:32 63.1 °F 50.3 °F 29.98 in NNE 3.0 mph 4.0 mph 63% 0.00 in 139 W/m2
16:38 62.8 °F 50.9 °F 29.98 in NNW 3.0 mph 4.0 mph 65% 0.00 in 125 W/m2
16:44 63.0 °F 51.0 °F 29.98 in NNW 3.0 mph 5.0 mph 65% 0.00 in 77 W/m2
16:50 63.6 °F 50.3 °F 29.98 in NNE 3.0 mph 5.0 mph 62% 0.00 in 97 W/m2
16:56 63.2 °F 49.5 °F 29.98 in NW 4.0 mph 6.0 mph 61% 0.00 in 120 W/m2
17:02 63.1 °F 49.9 °F 29.98 in North 4.0 mph 7.0 mph 62% 0.00 in 554 W/m2
17:08 64.1 °F 49.9 °F 29.98 in NW 4.0 mph 8.0 mph 60% 0.00 in 540 W/m2
17:14 64.5 °F 50.3 °F 29.98 in NNE 5.0 mph 8.0 mph 60% 0.00 in 526 W/m2
17:20 65.1 °F 50.4 °F 29.98 in NE 4.0 mph 8.0 mph 59% 0.00 in 411 W/m2
17:26 65.0 °F 48.9 °F 29.98 in WNW 3.0 mph 8.0 mph 56% 0.00 in 380 W/m2
17:32 65.1 °F 49.5 °F 29.98 in NNW 3.0 mph 4.0 mph 57% 0.00 in 360 W/m2
17:38 64.7 °F 48.2 °F 29.98 in NNW 3.0 mph 4.0 mph 55% 0.00 in 56 W/m2
17:44 63.7 °F 48.6 °F 29.98 in NNW 3.0 mph 5.0 mph 58% 0.00 in 56 W/m2
17:50 62.7 °F 48.2 °F 29.98 in NNW 2.0 mph 2.0 mph 59% 0.00 in 88 W/m2
17:56 62.2 °F 48.1 °F 29.98 in NNW 1.0 mph 3.0 mph 60% 0.00 in 93 W/m2
18:02 62.0 °F 48.4 °F 29.98 in NW 1.0 mph 3.0 mph 61% 0.00 in 91 W/m2
18:08 62.0 °F 48.8 °F 29.99 in NNW 3.0 mph 3.0 mph 62% 0.00 in 74 W/m2
18:14 61.7 °F 49.0 °F 29.99 in North 3.0 mph 6.0 mph 63% 0.00 in 49 W/m2
18:20 61.3 °F 49.8 °F 29.99 in NNW 3.0 mph 3.0 mph 66% 0.00 in 53 W/m2
18:26 60.9 °F 49.9 °F 29.99 in North 3.0 mph 3.0 mph 67% 0.00 in 46 W/m2
18:32 60.5 °F 49.5 °F 29.99 in NNE 4.0 mph 8.0 mph 67% 0.00 in 40 W/m2
18:38 60.3 °F 50.1 °F 29.99 in North 4.0 mph 8.0 mph 69% 0.00 in 49 W/m2
18:44 60.2 °F 50.0 °F 29.99 in NNW 3.0 mph 3.0 mph 69% 0.00 in 40 W/m2
18:50 60.0 °F 49.8 °F 29.99 in NNE 3.0 mph 3.0 mph 69% 0.00 in 32 W/m2
18:56 59.7 °F 49.9 °F 29.99 in NNW 2.0 mph 4.0 mph 70% 0.00 in 26 W/m2
19:02 59.4 °F 49.2 °F 29.99 in North 2.0 mph 3.0 mph 69% 0.00 in 21 W/m2
19:08 59.1 °F 48.9 °F 30.00 in North 2.0 mph 3.0 mph 69% 0.00 in 33 W/m2
19:14 58.9 °F 49.1 °F 30.00 in North 2.0 mph 2.0 mph 70% 0.00 in 18 W/m2
19:20 58.5 °F 48.4 °F 30.01 in NNE 3.0 mph 3.0 mph 69% 0.00 in 12 W/m2
19:26 57.9 °F 47.8 °F 30.01 in NW 4.0 mph 5.0 mph 69% 0.00 in 11 W/m2
19:32 57.4 °F 47.3 °F 30.01 in North 3.0 mph 5.0 mph 69% 0.00 in 5 W/m2
19:38 56.9 °F 46.8 °F 30.01 in North 2.0 mph 5.0 mph 69% 0.00 in 0 W/m2
19:44 56.4 °F 46.7 °F 30.01 in North 2.0 mph 4.0 mph 70% 0.00 in 0 W/m2
19:50 56.0 °F 46.4 °F 30.01 in North 2.0 mph 2.0 mph 70% 0.00 in 0 W/m2
19:56 55.6 °F 46.3 °F 30.01 in North 2.0 mph 3.0 mph 71% 0.00 in 0 W/m2
20:02 55.2 °F 46.3 °F 30.02 in NNW 2.0 mph 3.0 mph 72% 0.00 in 0 W/m2
20:08 55.0 °F 46.1 °F 30.02 in North 3.0 mph 5.0 mph 72% 0.00 in 0 W/m2
20:14 54.8 °F 45.6 °F 30.03 in North 4.0 mph 8.0 mph 71% 0.00 in 0 W/m2
20:20 54.7 °F 45.8 °F 30.03 in North 3.0 mph 3.0 mph 72% 0.00 in 0 W/m2
20:26 54.4 °F 45.6 °F 30.03 in NNW 2.0 mph 4.0 mph 72% 0.00 in 0 W/m2
20:32 54.0 °F 45.5 °F 30.04 in NW 2.0 mph 5.0 mph 73% 0.00 in 0 W/m2
20:38 53.8 °F 45.3 °F 30.04 in North 3.0 mph 7.0 mph 73% 0.00 in 0 W/m2
20:44 53.7 °F 44.9 °F 30.04 in NNE 4.0 mph 8.0 mph 72% 0.00 in 0 W/m2
20:50 53.6 °F 44.4 °F 30.05 in NNW 5.0 mph 5.0 mph 71% 0.00 in 0 W/m2
20:56 53.3 °F 44.1 °F 30.05 in NNE 3.0 mph 7.0 mph 71% 0.00 in 0 W/m2
21:02 53.0 °F 43.8 °F 30.06 in NNW 3.0 mph 5.0 mph 71% 0.00 in 0 W/m2
21:08 52.9 °F 44.1 °F 30.06 in North 3.0 mph 5.0 mph 72% 0.00 in 0 W/m2
21:14 52.7 °F 43.6 °F 30.06 in NNW 3.0 mph 7.0 mph 71% 0.00 in 0 W/m2
21:20 52.5 °F 43.7 °F 30.06 in North 2.0 mph 2.0 mph 72% 0.00 in 0 W/m2
21:26 52.3 °F 43.5 °F 30.06 in North 2.0 mph 3.0 mph 72% 0.00 in 0 W/m2
21:32 52.0 °F 43.6 °F 30.07 in North 1.0 mph 1.0 mph 73% 0.00 in 0 W/m2
21:38 51.7 °F 43.3 °F 30.07 in Calm   1.0 mph 73% 0.00 in 0 W/m2
21:44 51.4 °F 43.4 °F 30.07 in Calm     74% 0.00 in 0 W/m2
21:50 51.1 °F 43.1 °F 30.07 in NNE 1.0 mph 1.0 mph 74% 0.00 in 0 W/m2
21:56 50.9 °F 43.3 °F 30.08 in NNE 1.0 mph 1.0 mph 75% 0.00 in 0 W/m2
22:02 50.6 °F 43.3 °F 30.08 in Calm     76% 0.00 in 0 W/m2
22:08 50.2 °F 43.3 °F 30.08 in Calm     77% 0.00 in 0 W/m2
22:14 49.8 °F 43.2 °F 30.08 in Calm     78% 0.00 in 0 W/m2
22:20 49.3 °F 43.1 °F 30.08 in Calm     79% 0.00 in 0 W/m2
22:26 48.9 °F 43.0 °F 30.08 in Calm     80% 0.00 in 0 W/m2
22:32 48.6 °F 42.7 °F 30.08 in Calm     80% 0.00 in 0 W/m2
22:38 48.2 °F 42.6 °F 30.08 in Calm     81% 0.00 in 0 W/m2
22:44 48.0 °F 42.8 °F 30.08 in Calm     82% 0.00 in 0 W/m2
22:50 47.6 °F 42.7 °F 30.08 in Calm     83% 0.00 in 0 W/m2
22:56 47.3 °F 42.7 °F 30.08 in Calm     84% 0.00 in 0 W/m2
23:02 46.9 °F 42.3 °F 30.08 in Calm     84% 0.00 in 0 W/m2
23:08 46.6 °F 42.0 °F 30.08 in Calm     84% 0.00 in 0 W/m2
23:20 46.2 °F 42.2 °F 30.08 in Calm     86% 0.00 in 0 W/m2
23:26 46.0 °F 42.3 °F 30.08 in Calm     87% 0.00 in 0 W/m2
23:32 45.9 °F 42.2 °F 30.08 in Calm     87% 0.00 in 0 W/m2
23:34 45.9 °F 42.5 °F 30.08 in Calm     88% 0.00 in 0 W/m2
23:40 46.0 °F 42.6 °F 30.09 in Calm     88% 0.00 in 0 W/m2
23:46 46.1 °F 43.0 °F 30.09 in Calm     89% 0.00 in 0 W/m2
23:48 46.1 °F 43.0 °F 30.09 in Calm     89% 0.00 in 0 W/m2
23:54 46.0 °F 42.9 °F 30.09 in Calm     89% 0.00 in 0 W/m2
Country Meadow, Clay, NY, USA
Compliments of Weather Underground - 2 mb